Aérodrome :
LOGIN :

S'inscrire | Disclaimer

   EN    FR    IT 

 










Légende :    VFR   VFR Marginal   IFR   IFR Intensif   IFR Très Intensif
Visi : 
Plafond : 
>= 8 km
>= 3000ft
5 à 8 km
1000 à 3000 ft
1500m à 5 km
500 à 1000 ft
800 à 1500m
200 à 500 ft
< 800m
< 200 ft
Symboles :   Orages  Brouillard  Fortes neiges  Fortes précipitations  Vent > 20 kt
SIGMETs :   Divers  Orages  Givrage  Turbulence  Onde Orograph.  Cendres Volcan.







- Altitude de l'aérodrome : 622 ft
- Code IATA : BRS
- Voir les cartes d'approche


EGGD - Bristol Int.

DERNIER METAR :
  • 180420Z AUTO 23008KT 9999 BKN002 OVC015 15/15 Q1020

METARs EXPIRÉS :
  • 180350Z 23008KT 0700 R27/P1500 FG VV/// 15/15 Q1020
  • 180320Z 24007KT 0600 R27/P1500 -DZ FG OVC001 15/15 Q1020
  • 180250Z 23006KT 0900 R27/P1500 -DZ FG OVC001 15/15 Q1020 RERA REDZ
  • 180220Z AUTO 23008KT 1300 R27/P1500 RADZ OVC001 15/15 Q1020
  • 180150Z AUTO 22007KT 3100 RADZ BKN002 BKN006 OVC011 15/15 Q1020

TAF AMD TAF EGGD
Valide du 18 à 04h jusqu'au 19 à 00h UTC


180440Z 1804/1824 24012KT 7000 BKN002
TEMPO 1804/1808 1200 BR BKN001
BECMG 1808/1811 9999 SCT020
BECMG 1820/1823 BKN006
TEMPO 1821/1824 4000 -DZ BKN003
PROB40
TEMPO 1821/1824 0300 DZ FG BKN001
ATIS : +44 1275 473 666
Pas de NOTAMs connus pour ce terrain.
1 SIGMET publié pour la FIR London (EGTT) :
 
Onde orographique forte
EGTT SIGMET 01 VALID 180330/180730 EGRR
EGTT LONDON FIR SEV MTW FCST WI N5500 W00530 - N5500 E00000 - N5300 W00130 - N5300 W00530 - N5500 W00530 FL040/250 STNR NC=



MET'MAP, la Météo Aéronautique d'un coup d'oeil ! - Copyright ORBIFLY Décembre 2007 - Disclaimer

ORBIFLY MET'MAP TEAM :

Programmation & Développement : Alexandra Zaïnal
Conception & Développement : Baudouin d'Aumeries
Co-Programmation & Développement : Marc-Olivier Méhu
Soutien technique & logistique : Manuel Goepfert

Contact : metmap@orbifly.com




SOURCES & CREDITS :

   NOAA